Detall de PIREP

Printer-friendly versionPDF version

[2012/11/17 16:19:00]
Flight IATA:CT2214
Pilot Number:012
Company ICAO:CAT
Aircraft Type:B744/E
PAX:426
Departing Airport: LFMP
Destination Airport: LFRS
Alternate Airport:LFPO
Online: VATSIM
Route:ORBIL/N0350F180 G36 GAI G39 SECHE/N0450F320 UN863 MANAK
Flight Level:F320
No Slew and time accel
No pause
Crash detect
Detect pilot in Cockpit between each 30 and 45 minutes
16:19 Zero fuel Weight: 483352 Lbs, Fuel Weight: 128818 Lbs
16:19 VATSIM:LFMP 171630Z 13012KT 9999 FEW002 BKN030 15/12 Q1009 NOSIG
16:19 VATSIM:LFRS 171630Z VRB01KT 4500 BR BKN012 12/12 Q1008 NOSIG
16:20 VOICE CATALONIAN
16:20 Parking Brakes off
16:28 Take-off
16:28 Take off Weight: 609994 Lbs
16:28 Wind: 132º @ 013 Knots Heading: 147º
16:28 POS N42º 44´ 27´´ E002º 52´ 21´´
16:28 Gear Up: 188 Knots
16:28 Flaps:3 at 188 Knots
16:28 Flaps:2 at 201 Knots
16:28 Flaps:1 at 202 Knots
16:29 Flaps:0 at 210 Knots
16:41 TOC
16:41 Fuel Weight: 114824 Lb
16:43 Wind:207º@022 Knots Heading: 325º Ground Speed: 492 Knots Altitude 31843 ft
16:58 Wind:208º@026 Knots Heading: 331º Ground Speed: 495 Knots Altitude 31833 ft
17:01 TOD
17:01 Fuel Weight: 107276 Lb
17:13 Wind:182º@012 Knots Heading: 348º Ground Speed: 287 Knots Altitude 8412 ft
17:18 Flaps:1 at 209 Knots
17:18 Flaps:2 at 208 Knots
17:18 Flaps:3 at 209 Knots
17:19 Flaps:4 at 198 Knots
17:20 Gear Down: 191 Knots
17:21 Flaps:5 at 190 Knots
17:22 Flaps:6 at 172 Knots
17:24 TouchDown:Rate -287 ft/min Speed: 139 Knots
17:24 VATSIM:LFRS 171800Z VRB01KT 4500 BR BKN013 12/12 Q1008 NOSIG
17:24 Land
17:24 Wind:004º@002 Knots
17:24 Heading: 025º
17:24 Flight Duration: 00:56
17:24 Landing Weight: 585036 Lbs
17:24 POS N47º 09´ 07´´ W001º 36´ 41´´
17:26 Parking brakes on
17:26 Block to Block Duration: 01:06
17:26 Final Fuel: 101239 Lbls
17:26 Spent Fuel: 27579 Lbls
17:26 Flight Length: 363 NM
17:26 TOD Land Length: 116 NM

Exportar CSV

Powered by Drupal - Modified by Danger4k